sensor_id;sensor_type;location;lat;lon;timestamp;pressure;altitude;pressure_sealevel;temperature;humidity
56719;BME280;42597;40.636;0.278;2023-02-18T00:02:12;98734.91;;;14.93;43.50
56719;BME280;42597;40.636;0.278;2023-02-18T00:04:38;98729.94;;;15.07;42.62
56719;BME280;42597;40.636;0.278;2023-02-18T00:07:03;98724.19;;;15.09;42.78
56719;BME280;42597;40.636;0.278;2023-02-18T00:09:29;98736.91;;;14.21;43.12
56719;BME280;42597;40.636;0.278;2023-02-18T00:11:54;98722.59;;;14.74;43.60
56719;BME280;42597;40.636;0.278;2023-02-18T00:14:20;98740.00;;;14.61;42.12
56719;BME280;42597;40.636;0.278;2023-02-18T00:16:45;98743.25;;;14.04;40.58
56719;BME280;42597;40.636;0.278;2023-02-18T00:19:16;98732.25;;;14.42;43.75
56719;BME280;42597;40.636;0.278;2023-02-18T00:21:42;98735.97;;;14.38;43.90
56719;BME280;42597;40.636;0.278;2023-02-18T00:24:09;98734.91;;;14.09;44.52
56719;BME280;42597;40.636;0.278;2023-02-18T00:26:36;98728.44;;;14.43;43.07
56719;BME280;42597;40.636;0.278;2023-02-18T00:29:03;98729.69;;;14.88;43.19
56719;BME280;42597;40.636;0.278;2023-02-18T00:31:32;98724.81;;;14.60;43.12
56719;BME280;42597;40.636;0.278;2023-02-18T00:33:58;98730.94;;;14.27;43.75
56719;BME280;42597;40.636;0.278;2023-02-18T00:36:24;98728.97;;;14.37;43.87
56719;BME280;42597;40.636;0.278;2023-02-18T00:38:53;98730.19;;;13.12;42.03
56719;BME280;42597;40.636;0.278;2023-02-18T00:41:20;98723.00;;;14.43;43.93
56719;BME280;42597;40.636;0.278;2023-02-18T00:43:46;98720.75;;;14.66;43.70
56719;BME280;42597;40.636;0.278;2023-02-18T00:46:12;98712.63;;;14.78;42.98
56719;BME280;42597;40.636;0.278;2023-02-18T00:48:38;98710.66;;;15.00;43.19
56719;BME280;42597;40.636;0.278;2023-02-18T00:51:05;98713.78;;;14.90;42.97
56719;BME280;42597;40.636;0.278;2023-02-18T00:53:31;98713.13;;;14.93;43.15
56719;BME280;42597;40.636;0.278;2023-02-18T00:55:57;98708.84;;;14.92;43.08
56719;BME280;42597;40.636;0.278;2023-02-18T00:58:23;98702.25;;;14.93;43.34
56719;BME280;42597;40.636;0.278;2023-02-18T01:00:48;98706.59;;;15.06;42.89
56719;BME280;42597;40.636;0.278;2023-02-18T01:03:14;98704.34;;;15.08;42.87
56719;BME280;42597;40.636;0.278;2023-02-18T01:05:41;98701.69;;;14.99;42.82
56719;BME280;42597;40.636;0.278;2023-02-18T01:08:08;98707.03;;;14.96;42.60
56719;BME280;42597;40.636;0.278;2023-02-18T01:10:35;98713.19;;;14.51;43.13
56719;BME280;42597;40.636;0.278;2023-02-18T01:13:01;98705.38;;;14.49;43.91
56719;BME280;42597;40.636;0.278;2023-02-18T01:15:29;98712.31;;;14.59;43.41
56719;BME280;42597;40.636;0.278;2023-02-18T01:17:55;98698.72;;;14.59;43.53
56719;BME280;42597;40.636;0.278;2023-02-18T01:20:21;98696.41;;;14.82;43.29
56719;BME280;42597;40.636;0.278;2023-02-18T01:22:46;98697.06;;;15.00;43.07
56719;BME280;42597;40.636;0.278;2023-02-18T01:25:13;98696.00;;;14.92;43.00
56719;BME280;42597;40.636;0.278;2023-02-18T01:27:39;98706.13;;;14.71;43.53
56719;BME280;42597;40.636;0.278;2023-02-18T01:30:05;98712.28;;;14.38;43.42
56719;BME280;42597;40.636;0.278;2023-02-18T01:32:32;98696.47;;;14.94;43.04
56719;BME280;42597;40.636;0.278;2023-02-18T01:35:00;98692.94;;;14.94;42.92
56719;BME280;42597;40.636;0.278;2023-02-18T01:37:26;98699.59;;;14.51;43.28
56719;BME280;42597;40.636;0.278;2023-02-18T01:39:52;98696.50;;;14.73;43.10
56719;BME280;42597;40.636;0.278;2023-02-18T01:42:26;98689.09;;;14.95;42.84
56719;BME280;42597;40.636;0.278;2023-02-18T01:44:52;98685.00;;;14.89;43.20
56719;BME280;42597;40.636;0.278;2023-02-18T01:47:18;98681.16;;;14.90;42.67
56719;BME280;42597;40.636;0.278;2023-02-18T01:49:47;98685.44;;;14.91;42.87
56719;BME280;42597;40.636;0.278;2023-02-18T01:52:17;98684.88;;;14.85;42.73
56719;BME280;42597;40.636;0.278;2023-02-18T01:54:47;98690.09;;;14.57;43.61
56719;BME280;42597;40.636;0.278;2023-02-18T01:57:29;98680.59;;;14.96;42.96
56719;BME280;42597;40.636;0.278;2023-02-18T01:59:59;98675.91;;;14.85;42.80
56719;BME280;42597;40.636;0.278;2023-02-18T02:02:29;98674.38;;;14.96;42.50
56719;BME280;42597;40.636;0.278;2023-02-18T02:04:57;98668.41;;;14.81;42.90
56719;BME280;42597;40.636;0.278;2023-02-18T02:07:25;98677.22;;;14.03;43.86
56719;BME280;42597;40.636;0.278;2023-02-18T02:09:52;98675.22;;;14.33;43.91
56719;BME280;42597;40.636;0.278;2023-02-18T02:32:06;98673.31;;;14.88;42.90
56719;BME280;42597;40.636;0.278;2023-02-18T02:37:38;98662.59;;;14.71;42.72
56719;BME280;42597;40.636;0.278;2023-02-18T02:48:41;98657.03;;;14.67;43.54
56719;BME280;42597;40.636;0.278;2023-02-18T02:51:31;98666.22;;;14.21;39.32
56719;BME280;42597;40.636;0.278;2023-02-18T02:54:19;98656.09;;;14.63;43.39
56719;BME280;42597;40.636;0.278;2023-02-18T02:56:45;98663.44;;;12.12;40.39
56719;BME280;42597;40.636;0.278;2023-02-18T02:59:23;98660.50;;;12.87;41.48
56719;BME280;42597;40.636;0.278;2023-02-18T03:05:07;98649.25;;;14.03;39.54
56719;BME280;42597;40.636;0.278;2023-02-18T03:18:37;98659.75;;;12.60;45.08
56719;BME280;42597;40.636;0.278;2023-02-18T03:21:26;98646.41;;;13.49;45.82
56719;BME280;42597;40.636;0.278;2023-02-18T03:24:07;98652.13;;;12.01;45.20
56719;BME280;42597;40.636;0.278;2023-02-18T03:26:40;98649.47;;;12.92;45.13
56719;BME280;42597;40.636;0.278;2023-02-18T03:29:07;98652.91;;;13.56;44.94
56719;BME280;42597;40.636;0.278;2023-02-18T03:31:36;98638.22;;;13.19;45.66
56719;BME280;42597;40.636;0.278;2023-02-18T03:34:15;98642.22;;;12.49;42.11
56719;BME280;42597;40.636;0.278;2023-02-18T03:36:43;98645.16;;;12.99;46.00
56719;BME280;42597;40.636;0.278;2023-02-18T03:39:17;98645.69;;;11.71;42.25
56719;BME280;42597;40.636;0.278;2023-02-18T03:41:44;98629.53;;;13.34;46.24
56719;BME280;42597;40.636;0.278;2023-02-18T03:44:11;98635.22;;;13.12;41.54
56719;BME280;42597;40.636;0.278;2023-02-18T03:46:40;98637.81;;;13.47;40.94
56719;BME280;42597;40.636;0.278;2023-02-18T03:49:08;98624.31;;;14.01;44.69
56719;BME280;42597;40.636;0.278;2023-02-18T03:51:34;98627.09;;;13.03;44.04
56719;BME280;42597;40.636;0.278;2023-02-18T03:53:59;98632.25;;;13.34;46.13
56719;BME280;42597;40.636;0.278;2023-02-18T03:56:25;98631.03;;;12.68;40.57
56719;BME280;42597;40.636;0.278;2023-02-18T03:58:50;98634.59;;;12.98;41.33
56719;BME280;42597;40.636;0.278;2023-02-18T04:01:16;98636.31;;;12.64;42.87
56719;BME280;42597;40.636;0.278;2023-02-18T04:03:41;98628.97;;;13.79;44.92
56719;BME280;42597;40.636;0.278;2023-02-18T04:06:07;98626.50;;;13.87;45.04
56719;BME280;42597;40.636;0.278;2023-02-18T04:08:32;98625.13;;;13.80;44.22
56719;BME280;42597;40.636;0.278;2023-02-18T04:10:58;98622.06;;;14.24;44.45
56719;BME280;42597;40.636;0.278;2023-02-18T04:13:23;98623.13;;;14.31;44.26
56719;BME280;42597;40.636;0.278;2023-02-18T04:15:50;98623.22;;;14.35;43.87
56719;BME280;42597;40.636;0.278;2023-02-18T04:18:16;98621.78;;;14.38;43.75
56719;BME280;42597;40.636;0.278;2023-02-18T04:20:42;98623.50;;;14.42;43.72
56719;BME280;42597;40.636;0.278;2023-02-18T04:23:07;98610.44;;;14.36;44.03
56719;BME280;42597;40.636;0.278;2023-02-18T04:25:33;98617.81;;;14.14;44.36
56719;BME280;42597;40.636;0.278;2023-02-18T04:27:59;98620.53;;;14.56;43.37
56719;BME280;42597;40.636;0.278;2023-02-18T04:30:25;98619.97;;;14.42;43.45
56719;BME280;42597;40.636;0.278;2023-02-18T04:32:51;98628.56;;;14.31;43.78
56719;BME280;42597;40.636;0.278;2023-02-18T04:35:16;98629.63;;;14.18;44.05
56719;BME280;42597;40.636;0.278;2023-02-18T04:37:42;98634.00;;;13.90;44.52
56719;BME280;42597;40.636;0.278;2023-02-18T04:40:08;98627.97;;;14.05;44.20
56719;BME280;42597;40.636;0.278;2023-02-18T04:42:34;98628.72;;;13.43;45.03
56719;BME280;42597;40.636;0.278;2023-02-18T04:44:59;98628.47;;;12.71;42.99
56719;BME280;42597;40.636;0.278;2023-02-18T04:47:25;98633.09;;;12.71;45.74
56719;BME280;42597;40.636;0.278;2023-02-18T04:49:50;98627.31;;;12.81;45.33
56719;BME280;42597;40.636;0.278;2023-02-18T04:52:16;98622.66;;;12.99;45.26
56719;BME280;42597;40.636;0.278;2023-02-18T04:54:43;98632.38;;;12.18;44.02
56719;BME280;42597;40.636;0.278;2023-02-18T04:57:08;98624.19;;;13.76;45.27
56719;BME280;42597;40.636;0.278;2023-02-18T04:59:34;98628.97;;;14.21;43.87
56719;BME280;42597;40.636;0.278;2023-02-18T05:02:00;98630.31;;;14.15;44.38
56719;BME280;42597;40.636;0.278;2023-02-18T05:04:26;98623.47;;;13.67;40.17
56719;BME280;42597;40.636;0.278;2023-02-18T05:06:51;98632.91;;;12.84;43.37
56719;BME280;42597;40.636;0.278;2023-02-18T05:09:17;98633.38;;;13.33;44.56
56719;BME280;42597;40.636;0.278;2023-02-18T05:11:43;98638.75;;;13.04;44.72
56719;BME280;42597;40.636;0.278;2023-02-18T05:14:09;98636.78;;;14.02;44.94
56719;BME280;42597;40.636;0.278;2023-02-18T05:16:35;98633.78;;;14.37;43.85
56719;BME280;42597;40.636;0.278;2023-02-18T05:19:00;98641.84;;;13.62;42.44
56719;BME280;42597;40.636;0.278;2023-02-18T05:21:26;98639.00;;;12.64;45.79
56719;BME280;42597;40.636;0.278;2023-02-18T05:23:52;98636.28;;;13.28;46.27
56719;BME280;42597;40.636;0.278;2023-02-18T05:26:17;98637.91;;;13.50;43.82
56719;BME280;42597;40.636;0.278;2023-02-18T05:28:43;98638.44;;;13.44;46.00
56719;BME280;42597;40.636;0.278;2023-02-18T05:31:09;98632.84;;;13.02;44.75
56719;BME280;42597;40.636;0.278;2023-02-18T05:33:34;98631.78;;;13.32;43.33
56719;BME280;42597;40.636;0.278;2023-02-18T05:36:00;98628.13;;;13.58;43.97
56719;BME280;42597;40.636;0.278;2023-02-18T05:38:26;98643.03;;;13.52;43.29
56719;BME280;42597;40.636;0.278;2023-02-18T05:40:51;98632.91;;;13.31;45.61
56719;BME280;42597;40.636;0.278;2023-02-18T05:43:17;98634.22;;;12.61;44.78
56719;BME280;42597;40.636;0.278;2023-02-18T05:45:43;98628.28;;;13.62;45.31
56719;BME280;42597;40.636;0.278;2023-02-18T05:48:09;98620.19;;;13.53;44.96
56719;BME280;42597;40.636;0.278;2023-02-18T05:50:34;98628.41;;;12.89;44.52
56719;BME280;42597;40.636;0.278;2023-02-18T05:53:00;98623.50;;;13.58;45.39
56719;BME280;42597;40.636;0.278;2023-02-18T05:55:26;98617.44;;;14.24;44.19
56719;BME280;42597;40.636;0.278;2023-02-18T05:57:51;98619.66;;;14.22;43.71
56719;BME280;42597;40.636;0.278;2023-02-18T06:00:18;98615.75;;;14.32;43.83
56719;BME280;42597;40.636;0.278;2023-02-18T06:02:43;98621.53;;;14.10;44.07
56719;BME280;42597;40.636;0.278;2023-02-18T06:05:09;98621.41;;;13.64;45.09
56719;BME280;42597;40.636;0.278;2023-02-18T06:07:36;98636.59;;;11.67;46.00
56719;BME280;42597;40.636;0.278;2023-02-18T06:10:03;98625.09;;;13.30;44.12
56719;BME280;42597;40.636;0.278;2023-02-18T06:12:29;98625.13;;;13.80;44.92
56719;BME280;42597;40.636;0.278;2023-02-18T06:14:55;98621.41;;;14.06;43.96
56719;BME280;42597;40.636;0.278;2023-02-18T06:17:20;98617.44;;;14.24;44.50
56719;BME280;42597;40.636;0.278;2023-02-18T06:19:47;98623.53;;;14.21;43.61
56719;BME280;42597;40.636;0.278;2023-02-18T06:22:13;98620.75;;;13.67;44.58
56719;BME280;42597;40.636;0.278;2023-02-18T06:24:39;98626.47;;;13.66;43.88
56719;BME280;42597;40.636;0.278;2023-02-18T06:27:06;98625.81;;;13.01;42.99
56719;BME280;42597;40.636;0.278;2023-02-18T06:29:32;98622.25;;;13.77;45.05
56719;BME280;42597;40.636;0.278;2023-02-18T06:31:58;98624.78;;;14.03;44.56
56719;BME280;42597;40.636;0.278;2023-02-18T06:34:24;98634.41;;;13.79;44.65
56719;BME280;42597;40.636;0.278;2023-02-18T06:36:51;98637.31;;;14.16;44.42
56719;BME280;42597;40.636;0.278;2023-02-18T06:39:16;98628.16;;;14.21;44.19
56719;BME280;42597;40.636;0.278;2023-02-18T06:41:42;98638.22;;;13.19;45.25
56719;BME280;42597;40.636;0.278;2023-02-18T06:44:08;98634.78;;;13.69;45.30
56719;BME280;42597;40.636;0.278;2023-02-18T06:46:34;98640.50;;;13.76;44.76
56719;BME280;42597;40.636;0.278;2023-02-18T06:48:59;98639.69;;;13.76;44.50
56719;BME280;42597;40.636;0.278;2023-02-18T06:51:25;98637.31;;;14.16;43.98
56719;BME280;42597;40.636;0.278;2023-02-18T06:53:51;98640.09;;;14.28;44.06
56719;BME280;42597;40.636;0.278;2023-02-18T06:56:16;98645.00;;;14.14;44.14
56719;BME280;42597;40.636;0.278;2023-02-18T06:58:42;98651.56;;;13.92;44.55
56719;BME280;42597;40.636;0.278;2023-02-18T07:01:08;98647.28;;;14.12;44.21
56719;BME280;42597;40.636;0.278;2023-02-18T07:03:34;98652.41;;;14.26;44.01
56719;BME280;42597;40.636;0.278;2023-02-18T07:06:00;98658.41;;;14.19;43.79
56719;BME280;42597;40.636;0.278;2023-02-18T07:08:26;98652.56;;;14.29;43.68
56719;BME280;42597;40.636;0.278;2023-02-18T07:10:52;98658.91;;;14.33;43.55
56719;BME280;42597;40.636;0.278;2023-02-18T07:13:17;98665.19;;;14.46;43.53
56719;BME280;42597;40.636;0.278;2023-02-18T07:15:43;98663.03;;;14.40;43.20
56719;BME280;42597;40.636;0.278;2023-02-18T07:18:09;98667.28;;;14.28;43.54
56719;BME280;42597;40.636;0.278;2023-02-18T07:20:34;98671.66;;;14.21;43.85
56719;BME280;42597;40.636;0.278;2023-02-18T07:23:00;98675.53;;;13.22;40.62
56719;BME280;42597;40.636;0.278;2023-02-18T07:25:26;98676.06;;;12.43;41.82
56719;BME280;42597;40.636;0.278;2023-02-18T07:27:52;98671.34;;;12.95;45.37
56719;BME280;42597;40.636;0.278;2023-02-18T07:30:20;98671.31;;;13.51;45.48
56719;BME280;42597;40.636;0.278;2023-02-18T07:32:45;98670.09;;;13.40;42.39
56719;BME280;42597;40.636;0.278;2023-02-18T07:35:15;98673.66;;;13.14;45.16
56719;BME280;42597;40.636;0.278;2023-02-18T07:37:45;98669.53;;;13.85;44.61
56719;BME280;42597;40.636;0.278;2023-02-18T07:40:17;98665.81;;;14.10;44.14
56719;BME280;42597;40.636;0.278;2023-02-18T07:42:44;98669.00;;;14.12;44.07
56719;BME280;42597;40.636;0.278;2023-02-18T07:45:10;98665.94;;;14.35;43.55
56719;BME280;42597;40.636;0.278;2023-02-18T07:47:36;98675.09;;;14.09;43.82
56719;BME280;42597;40.636;0.278;2023-02-18T07:50:02;98683.38;;;13.62;44.32
56719;BME280;42597;40.636;0.278;2023-02-18T07:52:28;98679.06;;;13.91;43.12
56719;BME280;42597;40.636;0.278;2023-02-18T07:54:53;98676.66;;;13.68;44.31
56719;BME280;42597;40.636;0.278;2023-02-18T07:57:19;98683.31;;;13.79;44.33
56719;BME280;42597;40.636;0.278;2023-02-18T07:59:45;98689.72;;;12.72;39.13
56719;BME280;42597;40.636;0.278;2023-02-18T08:02:19;98678.28;;;13.14;45.72
56719;BME280;42597;40.636;0.278;2023-02-18T08:04:47;98681.34;;;11.73;41.32
56719;BME280;42597;40.636;0.278;2023-02-18T08:07:14;98679.44;;;13.04;45.04
56719;BME280;42597;40.636;0.278;2023-02-18T08:09:40;98684.63;;;12.62;45.32
56719;BME280;42597;40.636;0.278;2023-02-18T08:12:06;98682.09;;;13.68;44.42
56719;BME280;42597;40.636;0.278;2023-02-18T08:14:33;98679.63;;;13.46;42.96
56719;BME280;42597;40.636;0.278;2023-02-18T08:16:58;98680.75;;;13.74;44.15
56719;BME280;42597;40.636;0.278;2023-02-18T08:19:24;98687.31;;;13.73;44.92
56719;BME280;42597;40.636;0.278;2023-02-18T08:21:50;98683.06;;;14.14;44.10
56719;BME280;42597;40.636;0.278;2023-02-18T08:24:16;98685.84;;;14.26;43.38
56719;BME280;42597;40.636;0.278;2023-02-18T08:26:43;98680.28;;;14.44;43.42
56719;BME280;42597;40.636;0.278;2023-02-18T08:29:08;98683.75;;;14.53;43.26
56719;BME280;42597;40.636;0.278;2023-02-18T08:31:35;98689.63;;;14.55;43.15
56719;BME280;42597;40.636;0.278;2023-02-18T08:34:01;98685.97;;;14.51;43.10
56719;BME280;42597;40.636;0.278;2023-02-18T08:36:28;98679.59;;;14.47;43.22
56719;BME280;42597;40.636;0.278;2023-02-18T08:38:55;98685.81;;;14.56;43.04
56719;BME280;42597;40.636;0.278;2023-02-18T08:41:21;98695.28;;;14.50;42.93
56719;BME280;42597;40.636;0.278;2023-02-18T08:43:46;98692.09;;;14.48;43.33
56719;BME280;42597;40.636;0.278;2023-02-18T08:46:13;98686.63;;;14.48;42.90
56719;BME280;42597;40.636;0.278;2023-02-18T08:48:39;98690.63;;;14.50;43.44
56719;BME280;42597;40.636;0.278;2023-02-18T08:51:19;98680.53;;;14.51;43.20
56719;BME280;42597;40.636;0.278;2023-02-18T08:53:45;98686.63;;;14.48;43.47
56719;BME280;42597;40.636;0.278;2023-02-18T08:56:12;98683.66;;;14.41;43.22
56719;BME280;42597;40.636;0.278;2023-02-18T08:58:39;98689.44;;;14.39;43.52
56719;BME280;42597;40.636;0.278;2023-02-18T09:01:06;98693.75;;;14.40;43.34
56719;BME280;42597;40.636;0.278;2023-02-18T09:03:33;98690.56;;;14.17;43.61
56719;BME280;42597;40.636;0.278;2023-02-18T09:05:59;98696.41;;;14.07;43.33
56719;BME280;42597;40.636;0.278;2023-02-18T09:08:26;98687.44;;;14.27;43.63
56719;BME280;42597;40.636;0.278;2023-02-18T09:10:56;98696.41;;;13.77;39.53
56719;BME280;42597;40.636;0.278;2023-02-18T09:13:23;98697.13;;;13.95;43.73
56719;BME280;42597;40.636;0.278;2023-02-18T09:16:03;98689.19;;;14.53;42.74
56719;BME280;42597;40.636;0.278;2023-02-18T09:18:31;98689.84;;;14.50;42.97
56719;BME280;42597;40.636;0.278;2023-02-18T09:20:58;98688.44;;;14.44;42.84
56719;BME280;42597;40.636;0.278;2023-02-18T09:23:26;98684.25;;;14.46;43.18
56719;BME280;42597;40.636;0.278;2023-02-18T09:25:53;98685.84;;;14.47;43.14
56719;BME280;42597;40.636;0.278;2023-02-18T09:28:19;98680.41;;;14.47;43.29
56719;BME280;42597;40.636;0.278;2023-02-18T09:30:45;98694.81;;;14.48;43.33
56719;BME280;42597;40.636;0.278;2023-02-18T09:33:11;98690.28;;;14.31;43.88
56719;BME280;42597;40.636;0.278;2023-02-18T09:35:44;98683.88;;;14.36;43.56
56719;BME280;42597;40.636;0.278;2023-02-18T09:38:12;98688.56;;;14.26;43.66
56719;BME280;42597;40.636;0.278;2023-02-18T09:40:42;98693.94;;;14.14;43.89
56719;BME280;42597;40.636;0.278;2023-02-18T09:43:39;98695.25;;;14.08;44.39
56719;BME280;42597;40.636;0.278;2023-02-18T09:46:05;98693.41;;;14.00;44.45
56719;BME280;42597;40.636;0.278;2023-02-18T09:48:34;98693.13;;;14.14;44.16
56719;BME280;42597;40.636;0.278;2023-02-18T09:51:00;98693.19;;;14.26;44.16
56719;BME280;42597;40.636;0.278;2023-02-18T09:53:26;98699.19;;;13.90;43.46
56719;BME280;42597;40.636;0.278;2023-02-18T09:55:54;98687.44;;;14.27;43.89
56719;BME280;42597;40.636;0.278;2023-02-18T09:58:26;98694.31;;;14.46;42.99
56719;BME280;42597;40.636;0.278;2023-02-18T10:01:36;98690.22;;;14.40;43.79
56719;BME280;42597;40.636;0.278;2023-02-18T10:04:04;98692.09;;;14.48;43.57
56719;BME280;42597;40.636;0.278;2023-02-18T10:06:35;98683.25;;;14.51;43.24
56719;BME280;42597;40.636;0.278;2023-02-18T10:09:13;98688.25;;;14.49;43.58
56719;BME280;42597;40.636;0.278;2023-02-18T10:11:42;98681.19;;;14.48;43.50
56719;BME280;42597;40.636;0.278;2023-02-18T10:14:12;98695.78;;;14.22;43.76
56719;BME280;42597;40.636;0.278;2023-02-18T10:16:39;98704.41;;;14.24;43.11
56719;BME280;42597;40.636;0.278;2023-02-18T10:21:50;98700.06;;;13.52;34.25
56719;BME280;42597;40.636;0.278;2023-02-18T10:24:21;98700.09;;;13.73;38.45
56719;BME280;42597;40.636;0.278;2023-02-18T10:26:50;98691.41;;;14.30;38.16
56719;BME280;42597;40.636;0.278;2023-02-18T10:29:17;98705.97;;;13.83;36.38
56719;BME280;42597;40.636;0.278;2023-02-18T10:32:15;98699.13;;;13.77;37.08
56719;BME280;42597;40.636;0.278;2023-02-18T10:37:56;98697.78;;;14.13;40.03
56719;BME280;42597;40.636;0.278;2023-02-18T10:40:48;98708.00;;;14.16;38.71
56719;BME280;42597;40.636;0.278;2023-02-18T10:46:16;98694.19;;;14.21;38.04
56719;BME280;42597;40.636;0.278;2023-02-18T10:51:34;98710.91;;;14.11;35.71
56719;BME280;42597;40.636;0.278;2023-02-18T10:54:02;98710.34;;;13.97;34.47
56719;BME280;42597;40.636;0.278;2023-02-18T10:59:31;98700.13;;;14.23;36.74
56719;BME280;42597;40.636;0.278;2023-02-18T11:02:14;98693.41;;;14.63;41.84
56719;BME280;42597;40.636;0.278;2023-02-18T11:04:44;98696.88;;;14.51;41.88
56719;BME280;42597;40.636;0.278;2023-02-18T11:07:15;98683.81;;;14.77;42.24
56719;BME280;42597;40.636;0.278;2023-02-18T11:09:52;98684.31;;;14.59;41.44
56719;BME280;42597;40.636;0.278;2023-02-18T11:12:25;98688.97;;;14.16;36.23
56719;BME280;42597;40.636;0.278;2023-02-18T11:17:33;98686.63;;;14.27;36.34
56719;BME280;42597;40.636;0.278;2023-02-18T11:20:20;98682.94;;;14.31;37.91
56719;BME280;42597;40.636;0.278;2023-02-18T11:22:48;98679.41;;;14.31;35.84
56719;BME280;42597;40.636;0.278;2023-02-18T11:25:21;98675.50;;;14.41;33.24
56719;BME280;42597;40.636;0.278;2023-02-18T11:27:56;98665.53;;;14.66;40.14
56719;BME280;42597;40.636;0.278;2023-02-18T11:30:32;98664.34;;;14.33;34.28
56719;BME280;42597;40.636;0.278;2023-02-18T11:33:06;98661.19;;;14.31;33.83
56719;BME280;42597;40.636;0.278;2023-02-18T11:35:33;98659.44;;;14.48;32.14
56719;BME280;42597;40.636;0.278;2023-02-18T11:38:02;98654.00;;;14.48;32.34
56719;BME280;42597;40.636;0.278;2023-02-18T11:40:34;98652.41;;;14.47;32.77
56719;BME280;42597;40.636;0.278;2023-02-18T11:45:31;98632.59;;;14.79;40.92
56719;BME280;42597;40.636;0.278;2023-02-18T11:48:22;98638.88;;;14.59;32.34
56719;BME280;42597;40.636;0.278;2023-02-18T11:50:51;98624.56;;;14.50;32.70
56719;BME280;42597;40.636;0.278;2023-02-18T11:53:31;98624.72;;;14.66;32.68
56719;BME280;42597;40.636;0.278;2023-02-18T11:55:59;98625.06;;;14.64;32.71
56719;BME280;42597;40.636;0.278;2023-02-18T11:58:26;98615.56;;;14.70;33.03
56719;BME280;42597;40.636;0.278;2023-02-18T12:00:58;98620.38;;;15.10;40.55
56719;BME280;42597;40.636;0.278;2023-02-18T12:03:49;98619.25;;;14.99;35.66
56719;BME280;42597;40.636;0.278;2023-02-18T12:08:51;98602.91;;;14.99;39.40
56719;BME280;42597;40.636;0.278;2023-02-18T12:11:28;98603.81;;;15.03;38.76
56719;BME280;42597;40.636;0.278;2023-02-18T12:13:57;98606.53;;;14.91;32.50
56719;BME280;42597;40.636;0.278;2023-02-18T12:27:23;98578.88;;;15.38;37.93
56719;BME280;42597;40.636;0.278;2023-02-18T12:46:00;98558.00;;;15.29;31.00
56719;BME280;42597;40.636;0.278;2023-02-18T12:59:58;98538.69;;;15.35;32.87
56719;BME280;42597;40.636;0.278;2023-02-18T13:10:33;98527.34;;;15.45;31.59
56719;BME280;42597;40.636;0.278;2023-02-18T13:13:23;98521.88;;;15.57;32.70
56719;BME280;42597;40.636;0.278;2023-02-18T13:16:14;98519.41;;;15.40;34.32
56719;BME280;42597;40.636;0.278;2023-02-18T13:19:30;98509.84;;;15.46;34.35
56719;BME280;42597;40.636;0.278;2023-02-18T13:21:30;98507.00;;;15.67;35.05
56719;BME280;42597;40.636;0.278;2023-02-18T13:24:09;98512.13;;;15.56;34.99
56719;BME280;42597;40.636;0.278;2023-02-18T13:26:39;98506.00;;;15.47;35.79
56719;BME280;42597;40.636;0.278;2023-02-18T13:29:29;98500.97;;;15.61;35.81
56719;BME280;42597;40.636;0.278;2023-02-18T13:32:11;98490.53;;;15.51;35.70
56719;BME280;42597;40.636;0.278;2023-02-18T13:34:53;98495.78;;;15.56;36.44
56719;BME280;42597;40.636;0.278;2023-02-18T13:39:56;98485.06;;;15.63;36.81
56719;BME280;42597;40.636;0.278;2023-02-18T13:47:41;98482.88;;;15.41;35.98
56719;BME280;42597;40.636;0.278;2023-02-18T13:52:41;98475.75;;;15.36;36.24
56719;BME280;42597;40.636;0.278;2023-02-18T13:55:18;98467.25;;;15.66;36.74
56719;BME280;42597;40.636;0.278;2023-02-18T13:57:47;98472.59;;;15.62;36.71
56719;BME280;42597;40.636;0.278;2023-02-18T14:00:23;98470.19;;;15.33;36.69
56719;BME280;42597;40.636;0.278;2023-02-18T14:02:58;98468.50;;;15.28;36.43
56719;BME280;42597;40.636;0.278;2023-02-18T14:05:38;98454.25;;;15.47;36.38
56719;BME280;42597;40.636;0.278;2023-02-18T14:08:45;98452.88;;;15.53;36.65
56719;BME280;42597;40.636;0.278;2023-02-18T14:16:05;98442.75;;;15.66;36.33
56719;BME280;42597;40.636;0.278;2023-02-18T14:26:21;98437.78;;;15.43;37.05
56719;BME280;42597;40.636;0.278;2023-02-18T14:33:43;98422.56;;;15.54;36.38
56719;BME280;42597;40.636;0.278;2023-02-18T14:50:00;98404.56;;;15.38;37.00
56719;BME280;42597;40.636;0.278;2023-02-18T14:52:35;98407.38;;;15.82;37.71
56719;BME280;42597;40.636;0.278;2023-02-18T14:55:04;98407.25;;;15.50;37.33
56719;BME280;42597;40.636;0.278;2023-02-18T14:57:43;98400.31;;;15.65;37.72
56719;BME280;42597;40.636;0.278;2023-02-18T15:00:18;98401.38;;;15.76;37.42
56719;BME280;42597;40.636;0.278;2023-02-18T15:02:48;98400.13;;;15.73;37.24
56719;BME280;42597;40.636;0.278;2023-02-18T15:05:22;98390.41;;;16.36;37.30
56719;BME280;42597;40.636;0.278;2023-02-18T15:08:06;98386.00;;;16.47;37.43
56719;BME280;42597;40.636;0.278;2023-02-18T15:10:42;98390.75;;;15.87;36.43
56719;BME280;42597;40.636;0.278;2023-02-18T15:15:52;98384.94;;;15.44;36.86
56719;BME280;42597;40.636;0.278;2023-02-18T15:18:27;98379.84;;;15.87;36.88
56719;BME280;42597;40.636;0.278;2023-02-18T15:20:54;98378.09;;;16.10;37.93
56719;BME280;42597;40.636;0.278;2023-02-18T15:23:20;98388.13;;;16.06;37.47
56719;BME280;42597;40.636;0.278;2023-02-18T15:25:50;98387.75;;;15.92;37.05
56719;BME280;42597;40.636;0.278;2023-02-18T15:28:27;98380.13;;;16.13;36.98
56719;BME280;42597;40.636;0.278;2023-02-18T15:30:58;98381.63;;;16.26;37.45
56719;BME280;42597;40.636;0.278;2023-02-18T15:33:24;98380.13;;;15.97;36.66
56719;BME280;42597;40.636;0.278;2023-02-18T15:35:51;98382.41;;;16.27;37.64
56719;BME280;42597;40.636;0.278;2023-02-18T15:38:20;98387.06;;;16.58;36.10
56719;BME280;42597;40.636;0.278;2023-02-18T15:40:51;98377.81;;;16.47;37.23
56719;BME280;42597;40.636;0.278;2023-02-18T15:43:21;98385.44;;;16.89;36.52
56719;BME280;42597;40.636;0.278;2023-02-18T15:45:50;98384.94;;;15.72;38.16
56719;BME280;42597;40.636;0.278;2023-02-18T15:50:52;98388.00;;;15.71;39.03
56719;BME280;42597;40.636;0.278;2023-02-18T15:53:19;98388.19;;;15.50;38.78